M S San Francisco — WZC3886 — position and weather

sailwx.info

Track history (hours):
 
Tides and Currents Weather Stations Pressure Air Temp Water Temp Dewpoint Dewpoint Depression Visibility Wind Speed Wind Dir Waves Ship Positions

M S San Francisco

Owner: GOLDEN GATE BRIDGE HWY & TRANSP DISTRICT, LARKSPUR, CA. More information available from US FCC via Universal Licensing System and Coast Guard Vessel Documentation Center.

Last reported at 2017-Sep-21 13:52 UTC. Time now 2017-Oct-17 16:35 UTC.
Position N 37°47' W 122°17'.
Warning: this ship's position is 26 days out of date.

Length 58 m.

Type: Passenger vessel. MMSI: 366963980.

Date/timePositionNaut miles runAvg speedWind from/ knotsBaromVisibWave heightAir tempDewpointWater temp
2017-Sep-21 13:52N 37°47' W 122°17'1 3.0
2017-Sep-21 13:30N 37°48' W 122°19'611.9
2017-Sep-21 13:01N 37°52' W 122°24'7 0.6
2017-Sep-21 00:26N 37°57' W 122°31'1 1.3
2017-Sep-21 00:00N 37°56' W 122°30'714.1
2017-Sep-20 23:30N 37°51' W 122°24'4 8.9
2017-Sep-20 23:00N 37°47' W 122°23'0 0.0
2017-Sep-20 22:30N 37°47' W 122°23'0 0.0
2017-Sep-20 22:00N 37°47' W 122°23'0 0.0
2017-Sep-20 21:30N 37°47' W 122°23'0 0.0
2017-Sep-20 21:00N 37°47' W 122°23'0 0.0
2017-Sep-20 20:30N 37°47' W 122°23'1 2.3
2017-Sep-20 20:00N 37°48' W 122°24'0 0.0
2017-Sep-20 19:30N 37°48' W 122°24'0 0.2
2017-Sep-20 19:00N 37°48' W 122°23'4 8.3
2017-Sep-20 18:30N 37°48' W 122°18'1 1.2
2017-Sep-20 18:01N 37°47' W 122°17'0 0.0
2017-Sep-20 17:30N 37°47' W 122°17'0 0.0
2017-Sep-20 17:00N 37°47' W 122°17'0 0.0
2017-Sep-20 16:30N 37°47' W 122°17'0 0.0
2017-Sep-20 16:01N 37°47' W 122°17'0 0.0
2017-Sep-20 15:30N 37°47' W 122°17'4 7.4
2017-Sep-20 15:00N 37°49' W 122°22'10 1.2
2017-Sep-20 06:37N 37°57' W 122°30'1 8.9
2017-Sep-20 06:30N 37°56' W 122°29'917.6
2017-Sep-20 06:00N 37°49' W 122°23'2 4.7
2017-Sep-20 05:30N 37°47' W 122°23'0 0.0
2017-Sep-20 05:00N 37°47' W 122°23'0 0.0
2017-Sep-20 04:30N 37°47' W 122°23'0 0.0
2017-Sep-20 04:01N 37°47' W 122°23'1 2.2
2017-Sep-20 03:30N 37°48' W 122°24'0 0.1
2017-Sep-20 03:00N 37°48' W 122°24'4 8.2
2017-Sep-20 02:31N 37°51' W 122°27'1 2.0
2017-Sep-20 02:01N 37°50' W 122°26'3 6.4
2017-Sep-20 01:30N 37°48' W 122°24'0 0.0
2017-Sep-20 01:00N 37°48' W 122°24'1 1.1
2017-Sep-20 00:30N 37°48' W 122°23'510.3
2017-Sep-20 00:00N 37°51' W 122°29'0 0.0
2017-Sep-19 23:30N 37°51' W 122°29'0 0.0
2017-Sep-19 23:00N 37°51' W 122°29'0 0.9
2017-Sep-19 22:31N 37°51' W 122°28'0 0.2
2017-Sep-19 22:00N 37°51' W 122°28'2 4.7
2017-Sep-19 21:30N 37°53' W 122°26'4 7.5
2017-Sep-19 21:00N 37°56' W 122°29'2 3.2
2017-Sep-19 20:30N 37°57' W 122°31'0 0.0
2017-Sep-19 19:57N 37°57' W 122°31'0 0.0
2017-Sep-19 19:30N 37°57' W 122°31'0 0.0
2017-Sep-19 19:00N 37°57' W 122°31'0 0.0
2017-Sep-19 18:30N 37°57' W 122°31'0 0.0
2017-Sep-19 17:59N 37°57' W 122°31'1 1.2
2017-Sep-19 17:30N 37°56' W 122°30'714.3
2017-Sep-19 17:01N 37°51' W 122°24'2 4.4
2017-Sep-19 16:31N 37°49' W 122°24'4 7.6
2017-Sep-19 16:01N 37°52' W 122°27'5 9.8
2017-Sep-19 15:30N 37°48' W 122°24'510.7
2017-Sep-19 15:00N 37°52' W 122°27'4 7.3
2017-Sep-19 14:31N 37°50' W 122°24'1 1.1
2017-Sep-19 14:00N 37°49' W 122°24'4 7.4
2017-Sep-19 13:30N 37°52' W 122°27'510.8
2017-Sep-19 13:00N 37°48' W 122°24'510.9
2017-Sep-19 12:30N 37°52' W 122°27'3 7.0
2017-Sep-19 12:00N 37°56' W 122°28'2 0.2
2017-Sep-19 04:08N 37°57' W 122°30'0 3.2
2017-Sep-19 04:00N 37°56' W 122°30'4 7.4
2017-Sep-19 03:30N 37°54' W 122°26'713.8
2017-Sep-19 03:00N 37°48' W 122°24'0 0.0
2017-Sep-19 02:30N 37°48' W 122°24'0 0.0
2017-Sep-19 02:00N 37°48' W 122°24'0 0.0
2017-Sep-19 01:30N 37°48' W 122°24'0 0.0
2017-Sep-19 01:00N 37°48' W 122°24'1 1.2
2017-Sep-19 00:30N 37°48' W 122°23'510.2
2017-Sep-19 00:00N 37°51' W 122°29'0 0.8
2017-Sep-18 23:30N 37°51' W 122°28'0 0.1
2017-Sep-18 23:00N 37°51' W 122°28'3 5.9
2017-Sep-18 22:30N 37°54' W 122°27'4 8.3
2017-Sep-18 22:00N 37°57' W 122°30'0 0.2
2017-Sep-18 21:19N 37°57' W 122°31'0 0.9
2017-Sep-18 20:59N 37°57' W 122°30'1 2.0
2017-Sep-18 20:30N 37°56' W 122°29'1 0.0
2017-Sep-18 02:07N 37°56' W 122°30'111.1
2017-Sep-18 02:00N 37°56' W 122°28'917.4
2017-Sep-18 01:31N 37°48' W 122°23'0 0.5
2017-Sep-18 01:01N 37°48' W 122°24'510.8
2017-Sep-18 00:30N 37°51' W 122°29'1 2.1
2017-Sep-18 00:01N 37°51' W 122°27'4 8.9
2017-Sep-17 23:30N 37°48' W 122°24'4 7.3
2017-Sep-17 23:01N 37°50' W 122°27'2 3.6
2017-Sep-17 22:30N 37°51' W 122°29'510.0
2017-Sep-17 22:01N 37°49' W 122°23'1 2.6
2017-Sep-17 21:30N 37°50' W 122°25'4 7.4
2017-Sep-17 21:00N 37°51' W 122°29'510.9
2017-Sep-17 20:31N 37°48' W 122°23'2 4.8
2017-Sep-17 20:00N 37°50' W 122°25'3 6.6
2017-Sep-17 19:30N 37°51' W 122°29'510.8
2017-Sep-17 19:00N 37°48' W 122°24'5 9.8
2017-Sep-17 18:30N 37°51' W 122°28'2 4.1
2017-Sep-17 18:00N 37°51' W 122°26'3 6.6
2017-Sep-17 17:30N 37°48' W 122°24'713.3
2017-Sep-17 17:00N 37°54' W 122°27'4 8.4
2017-Sep-17 16:30N 37°57' W 122°31'0 0.0
2017-Sep-17 05:11N 37°57' W 122°31'1 5.5
2017-Sep-17 04:58N 37°56' W 122°29'715.6
2017-Sep-17 04:30N 37°50' W 122°24'4 7.3
2017-Sep-17 04:00N 37°47' W 122°23'1 2.0
2017-Sep-17 03:30N 37°48' W 122°23'2 4.4
2017-Sep-17 03:00N 37°50' W 122°24'4 7.3
2017-Sep-17 02:31N 37°51' W 122°29'510.0
2017-Sep-17 02:01N 37°49' W 122°23'1 2.1
2017-Sep-17 01:31N 37°48' W 122°23'510.8
2017-Sep-17 01:01N 37°51' W 122°29'0 0.5
2017-Sep-17 00:30N 37°51' W 122°28'510.7
2017-Sep-17 00:00N 37°48' W 122°23'2 4.6
2017-Sep-16 23:31N 37°50' W 122°25'3 6.3
2017-Sep-16 23:00N 37°51' W 122°29'4 8.7
2017-Sep-16 22:31N 37°50' W 122°24'2 3.1
2017-Sep-16 22:01N 37°48' W 122°23'510.6
2017-Sep-16 21:30N 37°51' W 122°29'2 3.2
2017-Sep-16 21:00N 37°52' W 122°27'511.0
2017-Sep-16 20:30N 37°57' W 122°31'0 0.0
2017-Sep-16 04:12N 37°57' W 122°31'1 4.1
2017-Sep-16 04:00N 37°56' W 122°30'510.3
2017-Sep-16 03:30N 37°51' W 122°28'510.3
2017-Sep-16 03:01N 37°48' W 122°23'0 0.6
2017-Sep-16 02:30N 37°48' W 122°24'0 0.1
2017-Sep-16 02:00N 37°48' W 122°24'4 7.6
2017-Sep-16 01:30N 37°51' W 122°27'2 3.4
2017-Sep-16 01:00N 37°51' W 122°29'510.8
2017-Sep-16 00:30N 37°48' W 122°24'2 4.6
2017-Sep-16 00:01N 37°50' W 122°25'3 5.9
2017-Sep-15 23:30N 37°51' W 122°28'510.3
2017-Sep-15 23:01N 37°48' W 122°24'510.8
2017-Sep-15 22:31N 37°51' W 122°29'0 0.1
2017-Sep-15 22:01N 37°51' W 122°29'1 2.8
2017-Sep-15 21:30N 37°52' W 122°27'4 7.8
2017-Sep-15 20:59N 37°56' W 122°29'2 3.6
2017-Sep-15 20:30N 37°57' W 122°31'0 0.0
2017-Sep-15 19:59N 37°57' W 122°31'0 0.0
2017-Sep-15 19:30N 37°57' W 122°31'0 0.0
2017-Sep-15 19:01N 37°57' W 122°31'0 0.0
2017-Sep-15 18:30N 37°57' W 122°31'0 0.0
2017-Sep-15 18:01N 37°57' W 122°31'2 4.2
2017-Sep-15 17:30N 37°56' W 122°28'714.0
2017-Sep-15 17:01N 37°50' W 122°24'1 1.5
2017-Sep-15 16:31N 37°49' W 122°24'4 7.9
2017-Sep-15 16:01N 37°52' W 122°27'510.4
2017-Sep-15 15:30N 37°48' W 122°24'510.7
2017-Sep-15 15:00N 37°52' W 122°27'4 8.0
2017-Sep-15 14:30N 37°50' W 122°23'1 1.4
2017-Sep-15 14:00N 37°50' W 122°24'3 6.8
2017-Sep-15 13:30N 37°52' W 122°27'510.5
2017-Sep-15 13:01N 37°48' W 122°24'510.9
2017-Sep-15 12:30N 37°52' W 122°27'3 6.6
2017-Sep-15 12:00N 37°56' W 122°28'2 4.5
2017-Sep-15 11:30N 37°57' W 122°31'0 0.0
2017-Sep-15 04:26N 37°57' W 122°31'1 3.2
2017-Sep-15 04:00N 37°56' W 122°29'4 7.1
2017-Sep-15 03:30N 37°54' W 122°26'612.2
2017-Sep-15 03:00N 37°48' W 122°24'4 7.3
2017-Sep-15 02:30N 37°50' W 122°27'1 1.7
2017-Sep-15 02:00N 37°50' W 122°26'3 6.2
2017-Sep-15 01:30N 37°48' W 122°24'0 0.0
2017-Sep-15 01:01N 37°48' W 122°24'0 0.7
2017-Sep-15 00:30N 37°48' W 122°23'510.7
2017-Sep-15 00:00N 37°52' W 122°27'510.5
2017-Sep-14 23:31N 37°48' W 122°23'1 1.2
2017-Sep-14 23:00N 37°48' W 122°24'0 0.0
2017-Sep-14 22:30N 37°48' W 122°24'4 8.6
2017-Sep-14 22:01N 37°51' W 122°27'2 4.5
2017-Sep-14 21:30N 37°53' W 122°26'4 7.9
2017-Sep-14 21:00N 37°56' W 122°29'1 1.8
2017-Sep-14 20:17N 37°57' W 122°31'0 0.0
2017-Sep-14 20:00N 37°57' W 122°31'0 0.0
2017-Sep-14 19:29N 37°57' W 122°31'0 0.1
2017-Sep-14 19:00N 37°57' W 122°30'0 0.1
2017-Sep-14 18:30N 37°57' W 122°31'0 0.0
2017-Sep-14 17:57N 37°57' W 122°31'1 1.8
2017-Sep-14 17:30N 37°56' W 122°30'713.3
2017-Sep-14 17:01N 37°51' W 122°24'2 4.6
2017-Sep-14 16:30N 37°49' W 122°24'4 8.3
2017-Sep-14 16:01N 37°52' W 122°27'510.7
2017-Sep-14 15:30N 37°48' W 122°24'510.8
2017-Sep-14 15:00N 37°52' W 122°27'4 7.7
2017-Sep-14 14:30N 37°50' W 122°24'0 0.8
2017-Sep-14 14:00N 37°50' W 122°24'4 7.3
2017-Sep-14 13:30N 37°52' W 122°27'510.7
2017-Sep-14 13:01N 37°48' W 122°24'510.9
2017-Sep-14 12:30N 37°52' W 122°27'4 7.8
2017-Sep-14 12:00N 37°56' W 122°29'1 0.2
2017-Sep-14 06:39N 37°57' W 122°30'1 8.9
2017-Sep-14 06:30N 37°56' W 122°29'815.7
2017-Sep-14 06:00N 37°50' W 122°24'3 5.7
2017-Sep-14 05:30N 37°47' W 122°23'0 0.0
2017-Sep-14 05:00N 37°47' W 122°23'0 0.0
2017-Sep-14 04:31N 37°47' W 122°23'0 0.0
2017-Sep-14 04:00N 37°47' W 122°23'1 2.2
2017-Sep-14 03:30N 37°48' W 122°24'0 0.1
2017-Sep-14 03:00N 37°48' W 122°24'4 7.7
2017-Sep-14 02:31N 37°50' W 122°27'1 2.7
2017-Sep-14 02:00N 37°50' W 122°25'3 6.0
2017-Sep-14 01:30N 37°48' W 122°24'0 0.0
2017-Sep-14 01:01N 37°48' W 122°24'1 1.1
2017-Sep-14 00:30N 37°48' W 122°23'4 8.7
2017-Sep-14 00:00N 37°51' W 122°28'1 1.6
2017-Sep-13 23:30N 37°51' W 122°29'0 0.0
2017-Sep-13 23:00N 37°51' W 122°29'0 0.0
2017-Sep-13 22:30N 37°51' W 122°29'0 0.0
2017-Sep-13 22:00N 37°51' W 122°29'0 0.0
2017-Sep-13 21:30N 37°51' W 122°29'5 9.1
2017-Sep-13 21:01N 37°56' W 122°29'2 0.8
2017-Sep-13 18:49N 37°57' W 122°31'0 0.0
2017-Sep-13 18:28N 37°57' W 122°31'0 0.0
2017-Sep-13 17:59N 37°57' W 122°31'1 2.6
2017-Sep-13 17:29N 37°56' W 122°29'714.1
2017-Sep-13 17:01N 37°51' W 122°24'1 3.0
2017-Sep-13 16:30N 37°49' W 122°24'4 7.9
2017-Sep-13 16:00N 37°52' W 122°27'510.6
2017-Sep-13 15:30N 37°48' W 122°24'510.6
2017-Sep-13 15:00N 37°52' W 122°27'3 7.0
2017-Sep-13 14:30N 37°50' W 122°24'1 1.2
2017-Sep-13 14:00N 37°50' W 122°25'3 6.1
2017-Sep-13 13:30N 37°52' W 122°27'510.3
2017-Sep-13 13:00N 37°48' W 122°24'511.0
2017-Sep-13 12:30N 37°52' W 122°27'2 4.2
2017-Sep-13 12:00N 37°54' W 122°27'4 0.8
2017-Sep-13 07:20N 37°57' W 122°31'2 5.6
2017-Sep-13 07:00N 37°56' W 122°28'816.6
2017-Sep-13 06:31N 37°49' W 122°23'2 4.0
2017-Sep-13 06:00N 37°47' W 122°23'0 0.0
2017-Sep-13 05:30N 37°47' W 122°23'0 0.0
2017-Sep-13 05:00N 37°47' W 122°23'0 0.0
2017-Sep-13 04:30N 37°47' W 122°23'0 0.0
2017-Sep-13 04:01N 37°47' W 122°23'1 2.2
2017-Sep-13 03:30N 37°48' W 122°24'0 0.1
2017-Sep-13 03:00N 37°48' W 122°24'4 7.5
2017-Sep-13 02:30N 37°50' W 122°27'1 1.2
2017-Sep-13 02:00N 37°51' W 122°26'3 7.0
2017-Sep-13 01:30N 37°48' W 122°24'0 0.0
2017-Sep-13 01:00N 37°48' W 122°24'1 1.0
2017-Sep-13 00:30N 37°48' W 122°23'510.5
2017-Sep-13 00:00N 37°51' W 122°29'510.8
2017-Sep-12 23:30N 37°48' W 122°23'0 0.4
2017-Sep-12 23:01N 37°48' W 122°24'510.7
2017-Sep-12 22:30N 37°51' W 122°29'0 0.1
2017-Sep-12 22:00N 37°51' W 122°29'0 0.0
2017-Sep-12 21:30N 37°51' W 122°29'4 8.3
2017-Sep-12 21:00N 37°55' W 122°28'3 5.0
2017-Sep-12 20:30N 37°57' W 122°31'0 0.0
2017-Sep-12 20:00N 37°57' W 122°31'0 0.0
2017-Sep-12 19:29N 37°57' W 122°31'0 0.0
2017-Sep-12 19:00N 37°57' W 122°31'0 0.0
2017-Sep-12 18:30N 37°57' W 122°31'0 0.0
2017-Sep-12 18:00N 37°57' W 122°31'0 0.0
2017-Sep-12 17:30N 37°57' W 122°31'612.3
2017-Sep-12 17:01N 37°52' W 122°25'4 7.5
2017-Sep-12 16:30N 37°49' W 122°24'5 9.1
2017-Sep-12 16:00N 37°52' W 122°27'510.8
2017-Sep-12 15:30N 37°48' W 122°24'510.7
2017-Sep-12 15:00N 37°52' W 122°27'3 6.3
2017-Sep-12 14:30N 37°50' W 122°24'1 1.5
2017-Sep-12 14:01N 37°50' W 122°25'3 6.2
2017-Sep-12 13:30N 37°52' W 122°27'510.8
2017-Sep-12 13:00N 37°48' W 122°24'510.9
2017-Sep-12 12:30N 37°52' W 122°27'3 6.1
2017-Sep-12 11:58N 37°56' W 122°28'2 2.9
2017-Sep-12 11:13N 37°57' W 122°31'0 0.0
2017-Sep-12 10:54N 37°57' W 122°31'0 0.0
2017-Sep-12 10:21N 37°57' W 122°31'411.4
2017-Sep-12 10:00N 37°54' W 122°27'816.5
2017-Sep-12 09:31N 37°47' W 122°23'0 0.0
2017-Sep-12 09:00N 37°47' W 122°23'0 0.0
2017-Sep-12 08:30N 37°47' W 122°23'0 0.0
2017-Sep-12 08:00N 37°47' W 122°23'0 0.0
2017-Sep-12 07:30N 37°47' W 122°23'0 0.0
2017-Sep-12 07:01N 37°47' W 122°23'0 0.0
2017-Sep-12 06:30N 37°47' W 122°23'0 0.0
2017-Sep-12 06:00N 37°47' W 122°23'0 0.0
2017-Sep-12 05:30N 37°47' W 122°23'0 0.0
2017-Sep-12 05:00N 37°47' W 122°23'0 0.0
2017-Sep-12 04:30N 37°47' W 122°23'0 0.0
2017-Sep-12 04:00N 37°47' W 122°23'1 2.2
2017-Sep-12 03:30N 37°48' W 122°24'0 0.1
2017-Sep-12 03:01N 37°48' W 122°24'4 8.3
2017-Sep-12 02:30N 37°51' W 122°27'1 1.8
2017-Sep-12 02:00N 37°51' W 122°26'4 7.2
2017-Sep-12 01:31N 37°48' W 122°24'0 0.0
2017-Sep-12 01:00N 37°48' W 122°24'0 1.0
2017-Sep-12 00:30N 37°48' W 122°23'510.5
2017-Sep-12 00:00N 37°51' W 122°29'3 5.2
2017-Sep-11 23:31N 37°50' W 122°26'3 6.1
2017-Sep-11 23:00N 37°48' W 122°24'0 0.0
2017-Sep-11 22:31N 37°48' W 122°24'510.7
2017-Sep-11 22:00N 37°51' W 122°29'0 0.0
2017-Sep-11 21:30N 37°51' W 122°29'4 8.5
2017-Sep-11 21:00N 37°56' W 122°28'2 4.8
2017-Sep-11 20:30N 37°57' W 122°31'0 0.0
2017-Sep-11 20:00N 37°57' W 122°31'0 0.0
2017-Sep-11 19:30N 37°57' W 122°31'0 0.0
2017-Sep-11 19:00N 37°57' W 122°31'0 0.0
2017-Sep-11 18:30N 37°57' W 122°31'0 0.0
2017-Sep-11 18:00N 37°57' W 122°31'0 0.7
2017-Sep-11 17:30N 37°57' W 122°30'714.0
2017-Sep-11 17:00N 37°51' W 122°24'2 4.1
2017-Sep-11 16:30N 37°49' W 122°24'4 7.9
2017-Sep-11 16:01N 37°52' W 122°27'510.9
2017-Sep-11 15:30N 37°48' W 122°24'510.8
2017-Sep-11 15:00N 37°52' W 122°27'4 7.3
2017-Sep-11 14:30N 37°50' W 122°24'1 1.3
2017-Sep-11 14:01N 37°50' W 122°25'  
Track history (hours):
 
Tides and Currents Weather Stations Pressure Air Temp Water Temp Dewpoint Dewpoint Depression Visibility Wind Speed Wind Dir Waves Ship Positions

M S San Francisco

Owner: GOLDEN GATE BRIDGE HWY & TRANSP DISTRICT, LARKSPUR, CA. More information available from US FCC via Universal Licensing System and Coast Guard Vessel Documentation Center.

Last reported at 2017-Sep-21 13:52 UTC. Time now 2017-Oct-17 16:35 UTC.
Position N 37°47' W 122°17'.
Warning: this ship's position is 26 days out of date.

Length 58 m.

Type: Passenger vessel. MMSI: 366963980.

Date/timePositionNaut miles runAvg speedWind from/ knotsBaromVisibWave heightAir tempDewpointWater temp
2017-Sep-21 13:52N 37°47' W 122°17'1 3.0
2017-Sep-21 13:30N 37°48' W 122°19'611.9
2017-Sep-21 13:01N 37°52' W 122°24'7 0.6
2017-Sep-21 00:26N 37°57' W 122°31'1 1.3
2017-Sep-21 00:00N 37°56' W 122°30'714.1
2017-Sep-20 23:30N 37°51' W 122°24'4 8.9
2017-Sep-20 23:00N 37°47' W 122°23'0 0.0
2017-Sep-20 22:30N 37°47' W 122°23'0 0.0
2017-Sep-20 22:00N 37°47' W 122°23'0 0.0
2017-Sep-20 21:30N 37°47' W 122°23'0 0.0
2017-Sep-20 21:00N 37°47' W 122°23'0 0.0
2017-Sep-20 20:30N 37°47' W 122°23'1 2.3
2017-Sep-20 20:00N 37°48' W 122°24'0 0.0
2017-Sep-20 19:30N 37°48' W 122°24'0 0.2
2017-Sep-20 19:00N 37°48' W 122°23'4 8.3
2017-Sep-20 18:30N 37°48' W 122°18'1 1.2
2017-Sep-20 18:01N 37°47' W 122°17'0 0.0
2017-Sep-20 17:30N 37°47' W 122°17'0 0.0
2017-Sep-20 17:00N 37°47' W 122°17'0 0.0
2017-Sep-20 16:30N 37°47' W 122°17'0 0.0
2017-Sep-20 16:01N 37°47' W 122°17'0 0.0
2017-Sep-20 15:30N 37°47' W 122°17'4 7.4
2017-Sep-20 15:00N 37°49' W 122°22'10 1.2
2017-Sep-20 06:37N 37°57' W 122°30'1 8.9
2017-Sep-20 06:30N 37°56' W 122°29'917.6
2017-Sep-20 06:00N 37°49' W 122°23'2 4.7
2017-Sep-20 05:30N 37°47' W 122°23'0 0.0
2017-Sep-20 05:00N 37°47' W 122°23'0 0.0
2017-Sep-20 04:30N 37°47' W 122°23'0 0.0
2017-Sep-20 04:01N 37°47' W 122°23'1 2.2
2017-Sep-20 03:30N 37°48' W 122°24'0 0.1
2017-Sep-20 03:00N 37°48' W 122°24'4 8.2
2017-Sep-20 02:31N 37°51' W 122°27'1 2.0
2017-Sep-20 02:01N 37°50' W 122°26'3 6.4
2017-Sep-20 01:30N 37°48' W 122°24'0 0.0
2017-Sep-20 01:00N 37°48' W 122°24'1 1.1
2017-Sep-20 00:30N 37°48' W 122°23'510.3
2017-Sep-20 00:00N 37°51' W 122°29'0 0.0
2017-Sep-19 23:30N 37°51' W 122°29'0 0.0
2017-Sep-19 23:00N 37°51' W 122°29'0 0.9
2017-Sep-19 22:31N 37°51' W 122°28'0 0.2
2017-Sep-19 22:00N 37°51' W 122°28'2 4.7
2017-Sep-19 21:30N 37°53' W 122°26'4 7.5
2017-Sep-19 21:00N 37°56' W 122°29'2 3.2
2017-Sep-19 20:30N 37°57' W 122°31'0 0.0
2017-Sep-19 19:57N 37°57' W 122°31'0 0.0
2017-Sep-19 19:30N 37°57' W 122°31'0 0.0
2017-Sep-19 19:00N 37°57' W 122°31'0 0.0
2017-Sep-19 18:30N 37°57' W 122°31'0 0.0
2017-Sep-19 17:59N 37°57' W 122°31'1 1.2
2017-Sep-19 17:30N 37°56' W 122°30'714.3
2017-Sep-19 17:01N 37°51' W 122°24'2 4.4
2017-Sep-19 16:31N 37°49' W 122°24'4 7.6
2017-Sep-19 16:01N 37°52' W 122°27'5 9.8
2017-Sep-19 15:30N 37°48' W 122°24'510.7
2017-Sep-19 15:00N 37°52' W 122°27'4 7.3
2017-Sep-19 14:31N 37°50' W 122°24'1 1.1
2017-Sep-19 14:00N 37°49' W 122°24'4 7.4
2017-Sep-19 13:30N 37°52' W 122°27'510.8
2017-Sep-19 13:00N 37°48' W 122°24'510.9
2017-Sep-19 12:30N 37°52' W 122°27'3 7.0
2017-Sep-19 12:00N 37°56' W 122°28'2 0.2
2017-Sep-19 04:08N 37°57' W 122°30'0 3.2
2017-Sep-19 04:00N 37°56' W 122°30'4 7.4
2017-Sep-19 03:30N 37°54' W 122°26'713.8
2017-Sep-19 03:00N 37°48' W 122°24'0 0.0
2017-Sep-19 02:30N 37°48' W 122°24'0 0.0
2017-Sep-19 02:00N 37°48' W 122°24'0 0.0
2017-Sep-19 01:30N 37°48' W 122°24'0 0.0
2017-Sep-19 01:00N 37°48' W 122°24'1 1.2
2017-Sep-19 00:30N 37°48' W 122°23'510.2
2017-Sep-19 00:00N 37°51' W 122°29'0 0.8
2017-Sep-18 23:30N 37°51' W 122°28'0 0.1
2017-Sep-18 23:00N 37°51' W 122°28'3 5.9
2017-Sep-18 22:30N 37°54' W 122°27'4 8.3
2017-Sep-18 22:00N 37°57' W 122°30'0 0.2
2017-Sep-18 21:19N 37°57' W 122°31'0 0.9
2017-Sep-18 20:59N 37°57' W 122°30'1 2.0
2017-Sep-18 20:30N 37°56' W 122°29'1 0.0
2017-Sep-18 02:07N 37°56' W 122°30'111.1
2017-Sep-18 02:00N 37°56' W 122°28'917.4
2017-Sep-18 01:31N 37°48' W 122°23'0 0.5
2017-Sep-18 01:01N 37°48' W 122°24'510.8
2017-Sep-18 00:30N 37°51' W 122°29'1 2.1
2017-Sep-18 00:01N 37°51' W 122°27'4 8.9
2017-Sep-17 23:30N 37°48' W 122°24'4 7.3
2017-Sep-17 23:01N 37°50' W 122°27'2 3.6
2017-Sep-17 22:30N 37°51' W 122°29'510.0
2017-Sep-17 22:01N 37°49' W 122°23'1 2.6
2017-Sep-17 21:30N 37°50' W 122°25'4 7.4
2017-Sep-17 21:00N 37°51' W 122°29'510.9
2017-Sep-17 20:31N 37°48' W 122°23'2 4.8
2017-Sep-17 20:00N 37°50' W 122°25'3 6.6
2017-Sep-17 19:30N 37°51' W 122°29'510.8
2017-Sep-17 19:00N 37°48' W 122°24'5 9.8
2017-Sep-17 18:30N 37°51' W 122°28'2 4.1
2017-Sep-17 18:00N 37°51' W 122°26'3 6.6
2017-Sep-17 17:30N 37°48' W 122°24'713.3
2017-Sep-17 17:00N 37°54' W 122°27'4 8.4
2017-Sep-17 16:30N 37°57' W 122°31'0 0.0
2017-Sep-17 05:11N 37°57' W 122°31'1 5.5
2017-Sep-17 04:58N 37°56' W 122°29'715.6
2017-Sep-17 04:30N 37°50' W 122°24'4 7.3
2017-Sep-17 04:00N 37°47' W 122°23'1 2.0
2017-Sep-17 03:30N 37°48' W 122°23'2 4.4
2017-Sep-17 03:00N 37°50' W 122°24'4 7.3
2017-Sep-17 02:31N 37°51' W 122°29'510.0
2017-Sep-17 02:01N 37°49' W 122°23'1 2.1
2017-Sep-17 01:31N 37°48' W 122°23'510.8
2017-Sep-17 01:01N 37°51' W 122°29'0 0.5
2017-Sep-17 00:30N 37°51' W 122°28'510.7
2017-Sep-17 00:00N 37°48' W 122°23'2 4.6
2017-Sep-16 23:31N 37°50' W 122°25'3 6.3
2017-Sep-16 23:00N 37°51' W 122°29'4 8.7
2017-Sep-16 22:31N 37°50' W 122°24'2 3.1
2017-Sep-16 22:01N 37°48' W 122°23'510.6
2017-Sep-16 21:30N 37°51' W 122°29'2 3.2
2017-Sep-16 21:00N 37°52' W 122°27'511.0
2017-Sep-16 20:30N 37°57' W 122°31'0 0.0
2017-Sep-16 04:12N 37°57' W 122°31'1 4.1
2017-Sep-16 04:00N 37°56' W 122°30'510.3
2017-Sep-16 03:30N 37°51' W 122°28'510.3
2017-Sep-16 03:01N 37°48' W 122°23'0 0.6
2017-Sep-16 02:30N 37°48' W 122°24'0 0.1
2017-Sep-16 02:00N 37°48' W 122°24'4 7.6
2017-Sep-16 01:30N 37°51' W 122°27'2 3.4
2017-Sep-16 01:00N 37°51' W 122°29'510.8
2017-Sep-16 00:30N 37°48' W 122°24'2 4.6
2017-Sep-16 00:01N 37°50' W 122°25'3 5.9
2017-Sep-15 23:30N 37°51' W 122°28'510.3
2017-Sep-15 23:01N 37°48' W 122°24'510.8
2017-Sep-15 22:31N 37°51' W 122°29'0 0.1
2017-Sep-15 22:01N 37°51' W 122°29'1 2.8
2017-Sep-15 21:30N 37°52' W 122°27'4 7.8
2017-Sep-15 20:59N 37°56' W 122°29'2 3.6
2017-Sep-15 20:30N 37°57' W 122°31'0 0.0
2017-Sep-15 19:59N 37°57' W 122°31'0 0.0
2017-Sep-15 19:30N 37°57' W 122°31'0 0.0
2017-Sep-15 19:01N 37°57' W 122°31'0 0.0
2017-Sep-15 18:30N 37°57' W 122°31'0 0.0
2017-Sep-15 18:01N 37°57' W 122°31'2 4.2
2017-Sep-15 17:30N 37°56' W 122°28'714.0
2017-Sep-15 17:01N 37°50' W 122°24'1 1.5
2017-Sep-15 16:31N 37°49' W 122°24'4 7.9
2017-Sep-15 16:01N 37°52' W 122°27'510.4
2017-Sep-15 15:30N 37°48' W 122°24'510.7
2017-Sep-15 15:00N 37°52' W 122°27'4 8.0
2017-Sep-15 14:30N 37°50' W 122°23'1 1.4
2017-Sep-15 14:00N 37°50' W 122°24'3 6.8
2017-Sep-15 13:30N 37°52' W 122°27'510.5
2017-Sep-15 13:01N 37°48' W 122°24'510.9
2017-Sep-15 12:30N 37°52' W 122°27'3 6.6
2017-Sep-15 12:00N 37°56' W 122°28'2 4.5
2017-Sep-15 11:30N 37°57' W 122°31'0 0.0
2017-Sep-15 04:26N 37°57' W 122°31'1 3.2
2017-Sep-15 04:00N 37°56' W 122°29'4 7.1
2017-Sep-15 03:30N 37°54' W 122°26'612.2
2017-Sep-15 03:00N 37°48' W 122°24'4 7.3
2017-Sep-15 02:30N 37°50' W 122°27'1 1.7
2017-Sep-15 02:00N 37°50' W 122°26'3 6.2
2017-Sep-15 01:30N 37°48' W 122°24'0 0.0
2017-Sep-15 01:01N 37°48' W 122°24'0 0.7
2017-Sep-15 00:30N 37°48' W 122°23'510.7
2017-Sep-15 00:00N 37°52' W 122°27'510.5
2017-Sep-14 23:31N 37°48' W 122°23'1 1.2
2017-Sep-14 23:00N 37°48' W 122°24'0 0.0
2017-Sep-14 22:30N 37°48' W 122°24'4 8.6
2017-Sep-14 22:01N 37°51' W 122°27'2 4.5
2017-Sep-14 21:30N 37°53' W 122°26'4 7.9
2017-Sep-14 21:00N 37°56' W 122°29'1 1.8
2017-Sep-14 20:17N 37°57' W 122°31'0 0.0
2017-Sep-14 20:00N 37°57' W 122°31'0 0.0
2017-Sep-14 19:29N 37°57' W 122°31'0 0.1
2017-Sep-14 19:00N 37°57' W 122°30'0 0.1
2017-Sep-14 18:30N 37°57' W 122°31'0 0.0
2017-Sep-14 17:57N 37°57' W 122°31'1 1.8
2017-Sep-14 17:30N 37°56' W 122°30'713.3
2017-Sep-14 17:01N 37°51' W 122°24'2 4.6
2017-Sep-14 16:30N 37°49' W 122°24'4 8.3
2017-Sep-14 16:01N 37°52' W 122°27'510.7
2017-Sep-14 15:30N 37°48' W 122°24'510.8
2017-Sep-14 15:00N 37°52' W 122°27'4 7.7
2017-Sep-14 14:30N 37°50' W 122°24'0 0.8
2017-Sep-14 14:00N 37°50' W 122°24'4 7.3
2017-Sep-14 13:30N 37°52' W 122°27'510.7
2017-Sep-14 13:01N 37°48' W 122°24'510.9
2017-Sep-14 12:30N 37°52' W 122°27'4 7.8
2017-Sep-14 12:00N 37°56' W 122°29'1 0.2
2017-Sep-14 06:39N 37°57' W 122°30'1 8.9
2017-Sep-14 06:30N 37°56' W 122°29'815.7
2017-Sep-14 06:00N 37°50' W 122°24'3 5.7
2017-Sep-14 05:30N 37°47' W 122°23'0 0.0
2017-Sep-14 05:00N 37°47' W 122°23'0 0.0
2017-Sep-14 04:31N 37°47' W 122°23'0 0.0
2017-Sep-14 04:00N 37°47' W 122°23'1 2.2
2017-Sep-14 03:30N 37°48' W 122°24'0 0.1
2017-Sep-14 03:00N 37°48' W 122°24'4 7.7
2017-Sep-14 02:31N 37°50' W 122°27'1 2.7
2017-Sep-14 02:00N 37°50' W 122°25'3 6.0
2017-Sep-14 01:30N 37°48' W 122°24'0 0.0
2017-Sep-14 01:01N 37°48' W 122°24'1 1.1
2017-Sep-14 00:30N 37°48' W 122°23'4 8.7
2017-Sep-14 00:00N 37°51' W 122°28'1 1.6
2017-Sep-13 23:30N 37°51' W 122°29'0 0.0
2017-Sep-13 23:00N 37°51' W 122°29'0 0.0
2017-Sep-13 22:30N 37°51' W 122°29'0 0.0
2017-Sep-13 22:00N 37°51' W 122°29'0 0.0
2017-Sep-13 21:30N 37°51' W 122°29'5 9.1
2017-Sep-13 21:01N 37°56' W 122°29'2 0.8
2017-Sep-13 18:49N 37°57' W 122°31'0 0.0
2017-Sep-13 18:28N 37°57' W 122°31'0 0.0
2017-Sep-13 17:59N 37°57' W 122°31'1 2.6
2017-Sep-13 17:29N 37°56' W 122°29'714.1
2017-Sep-13 17:01N 37°51' W 122°24'1 3.0
2017-Sep-13 16:30N 37°49' W 122°24'4 7.9
2017-Sep-13 16:00N 37°52' W 122°27'510.6
2017-Sep-13 15:30N 37°48' W 122°24'510.6
2017-Sep-13 15:00N 37°52' W 122°27'3 7.0
2017-Sep-13 14:30N 37°50' W 122°24'1 1.2
2017-Sep-13 14:00N 37°50' W 122°25'3 6.1
2017-Sep-13 13:30N 37°52' W 122°27'510.3
2017-Sep-13 13:00N 37°48' W 122°24'511.0
2017-Sep-13 12:30N 37°52' W 122°27'2 4.2
2017-Sep-13 12:00N 37°54' W 122°27'4 0.8
2017-Sep-13 07:20N 37°57' W 122°31'2 5.6
2017-Sep-13 07:00N 37°56' W 122°28'816.6
2017-Sep-13 06:31N 37°49' W 122°23'2 4.0
2017-Sep-13 06:00N 37°47' W 122°23'0 0.0
2017-Sep-13 05:30N 37°47' W 122°23'0 0.0
2017-Sep-13 05:00N 37°47' W 122°23'0 0.0
2017-Sep-13 04:30N 37°47' W 122°23'0 0.0
2017-Sep-13 04:01N 37°47' W 122°23'1 2.2
2017-Sep-13 03:30N 37°48' W 122°24'0 0.1
2017-Sep-13 03:00N 37°48' W 122°24'4 7.5
2017-Sep-13 02:30N 37°50' W 122°27'1 1.2
2017-Sep-13 02:00N 37°51' W 122°26'3 7.0
2017-Sep-13 01:30N 37°48' W 122°24'0 0.0
2017-Sep-13 01:00N 37°48' W 122°24'1 1.0
2017-Sep-13 00:30N 37°48' W 122°23'510.5
2017-Sep-13 00:00N 37°51' W 122°29'510.8
2017-Sep-12 23:30N 37°48' W 122°23'0 0.4
2017-Sep-12 23:01N 37°48' W 122°24'510.7
2017-Sep-12 22:30N 37°51' W 122°29'0 0.1
2017-Sep-12 22:00N 37°51' W 122°29'0 0.0
2017-Sep-12 21:30N 37°51' W 122°29'4 8.3
2017-Sep-12 21:00N 37°55' W 122°28'3 5.0
2017-Sep-12 20:30N 37°57' W 122°31'0 0.0
2017-Sep-12 20:00N 37°57' W 122°31'0 0.0
2017-Sep-12 19:29N 37°57' W 122°31'0 0.0
2017-Sep-12 19:00N 37°57' W 122°31'0 0.0
2017-Sep-12 18:30N 37°57' W 122°31'0 0.0
2017-Sep-12 18:00N 37°57' W 122°31'0 0.0
2017-Sep-12 17:30N 37°57' W 122°31'612.3
2017-Sep-12 17:01N 37°52' W 122°25'4 7.5
2017-Sep-12 16:30N 37°49' W 122°24'5 9.1
2017-Sep-12 16:00N 37°52' W 122°27'510.8
2017-Sep-12 15:30N 37°48' W 122°24'510.7
2017-Sep-12 15:00N 37°52' W 122°27'3 6.3
2017-Sep-12 14:30N 37°50' W 122°24'1 1.5
2017-Sep-12 14:01N 37°50' W 122°25'3 6.2
2017-Sep-12 13:30N 37°52' W 122°27'510.8
2017-Sep-12 13:00N 37°48' W 122°24'510.9
2017-Sep-12 12:30N 37°52' W 122°27'3 6.1
2017-Sep-12 11:58N 37°56' W 122°28'2 2.9
2017-Sep-12 11:13N 37°57' W 122°31'0 0.0
2017-Sep-12 10:54N 37°57' W 122°31'0 0.0
2017-Sep-12 10:21N 37°57' W 122°31'411.4
2017-Sep-12 10:00N 37°54' W 122°27'816.5
2017-Sep-12 09:31N 37°47' W 122°23'0 0.0
2017-Sep-12 09:00N 37°47' W 122°23'0 0.0
2017-Sep-12 08:30N 37°47' W 122°23'0 0.0
2017-Sep-12 08:00N 37°47' W 122°23'0 0.0
2017-Sep-12 07:30N 37°47' W 122°23'0 0.0
2017-Sep-12 07:01N 37°47' W 122°23'0 0.0
2017-Sep-12 06:30N 37°47' W 122°23'0 0.0
2017-Sep-12 06:00N 37°47' W 122°23'0 0.0
2017-Sep-12 05:30N 37°47' W 122°23'0 0.0
2017-Sep-12 05:00N 37°47' W 122°23'0 0.0
2017-Sep-12 04:30N 37°47' W 122°23'0 0.0
2017-Sep-12 04:00N 37°47' W 122°23'1 2.2
2017-Sep-12 03:30N 37°48' W 122°24'0 0.1
2017-Sep-12 03:01N 37°48' W 122°24'4 8.3
2017-Sep-12 02:30N 37°51' W 122°27'1 1.8
2017-Sep-12 02:00N 37°51' W 122°26'4 7.2
2017-Sep-12 01:31N 37°48' W 122°24'0 0.0
2017-Sep-12 01:00N 37°48' W 122°24'0 1.0
2017-Sep-12 00:30N 37°48' W 122°23'510.5
2017-Sep-12 00:00N 37°51' W 122°29'3 5.2
2017-Sep-11 23:31N 37°50' W 122°26'3 6.1
2017-Sep-11 23:00N 37°48' W 122°24'0 0.0
2017-Sep-11 22:31N 37°48' W 122°24'510.7
2017-Sep-11 22:00N 37°51' W 122°29'0 0.0
2017-Sep-11 21:30N 37°51' W 122°29'4 8.5
2017-Sep-11 21:00N 37°56' W 122°28'2 4.8
2017-Sep-11 20:30N 37°57' W 122°31'0 0.0
2017-Sep-11 20:00N 37°57' W 122°31'0 0.0
2017-Sep-11 19:30N 37°57' W 122°31'0 0.0
2017-Sep-11 19:00N 37°57' W 122°31'0 0.0
2017-Sep-11 18:30N 37°57' W 122°31'0 0.0
2017-Sep-11 18:00N 37°57' W 122°31'0 0.7
2017-Sep-11 17:30N 37°57' W 122°30'714.0
2017-Sep-11 17:00N 37°51' W 122°24'2 4.1
2017-Sep-11 16:30N 37°49' W 122°24'4 7.9
2017-Sep-11 16:01N 37°52' W 122°27'510.9
2017-Sep-11 15:30N 37°48' W 122°24'510.8
2017-Sep-11 15:00N 37°52' W 122°27'4 7.3
2017-Sep-11 14:30N 37°50' W 122°24'1 1.3
2017-Sep-11 14:01N 37°50' W 122°25'  

Dump ship's entire track history